Yakima, Washington
Current Conditions -  °F | °C
As of 5:46 AM on Tuesday 21 Oct 2014 (Local Time) from KYKM Reporting Station
Haze Haze  
Wind Chill: 38°   Ceiling: Unl
Heat Index: 38°   Visibility: 1mi
Dew Point: 37°   Wind: 3mph
Humidity: 97%   Direction: 290°WNW
Pressure: 29.88"   Gusts: NA
Location:  46.6°N, 120.5°W
Report Text: KYKM 211246Z 29003KT 1SM R27/3000VP6000FT BR FEW001 FEW100 03/03 A2988 RMK AO2 T00330028
Loading
Personal Weather Stations






























Interactive Weather Map New forecast layout! Learn more

10-Day Weather Forecast

Advertisements
Track Severe Weather on mobile